Time;durP1;ratioP1;P1;durP2;ratioP2;P2;SDS_P1;SDS_P2;PMS_P1;PMS_P2;Temp;Humidity;BMP_temperature;BMP_pressure;BME280_temperature;BME280_humidity;BME280_pressure;Samples;Min_cycle;Max_cycle;Signal;HPM_P1;HPM_P2
2021/08/04 00:02:04;;;;;;;1.42;1.33;;;16.10;99.90;;;;;;5045889;28;20269;-68
2021/08/04 00:04:29;;;;;;;1.50;1.40;;;16.10;99.90;;;;;;5045494;28;20661;-67
2021/08/04 00:06:55;;;;;;;1.48;1.38;;;16.10;99.90;;;;;;5045272;28;20202;-68
2021/08/04 00:09:20;;;;;;;1.85;1.58;;;16.10;99.90;;;;;;5046042;28;20189;-67
2021/08/04 00:11:46;;;;;;;1.85;1.75;;;16.10;99.90;;;;;;5045895;28;20174;-67
2021/08/04 00:14:12;;;;;;;2.03;1.88;;;16.10;99.90;;;;;;5045004;28;20182;-67
2021/08/04 00:16:37;;;;;;;1.60;1.50;;;16.10;99.90;;;;;;5045834;28;20195;-68
2021/08/04 00:19:03;;;;;;;2.30;1.58;;;16.10;99.90;;;;;;5045849;28;20185;-68
2021/08/04 00:21:30;;;;;;;3.75;1.23;;;16.10;99.90;;;;;;5045997;28;20171;-68
2021/08/04 00:23:55;;;;;;;2.40;1.60;;;16.10;99.90;;;;;;5044841;28;21250;-68
2021/08/04 00:26:21;;;;;;;2.58;1.50;;;16.10;99.90;;;;;;5045360;28;20198;-68
2021/08/04 00:28:47;;;;;;;2.08;1.90;;;16.00;99.90;;;;;;5046069;28;20187;-68
2021/08/04 00:31:12;;;;;;;1.33;1.23;;;15.90;99.90;;;;;;5045330;28;20178;-67
2021/08/04 00:33:38;;;;;;;2.25;1.38;;;15.90;99.90;;;;;;5045731;28;20264;-68
2021/08/04 00:36:04;;;;;;;1.75;1.63;;;15.90;99.90;;;;;;5044712;28;20208;-67
2021/08/04 00:38:29;;;;;;;2.83;1.77;;;15.90;99.90;;;;;;5045822;28;20217;-68
2021/08/04 00:40:55;;;;;;;2.90;1.80;;;15.80;99.90;;;;;;5044973;28;20610;-67
2021/08/04 00:43:22;;;;;;;1.58;1.48;;;15.70;99.90;;;;;;5046378;28;20630;-67
2021/08/04 00:45:50;;;;;;;1.83;1.60;;;15.70;99.90;;;;;;5043452;28;20213;-67
2021/08/04 00:48:17;;;;;;;1.60;1.50;;;15.70;99.90;;;;;;5045668;28;20608;-67
2021/08/04 00:50:44;;;;;;;1.52;1.33;;;15.80;99.90;;;;;;5045262;28;20182;-67
2021/08/04 00:53:25;;;;;;;2.72;1.50;;;15.80;99.90;;;;;;5045186;28;20610;-67
2021/08/04 00:55:53;;;;;;;1.88;1.40;;;15.90;99.90;;;;;;5044101;28;20201;-68
2021/08/04 00:58:29;;;;;;;1.33;1.23;;;15.90;99.90;;;;;;5045517;28;20225;-68
2021/08/04 01:01:11;;;;;;;2.05;1.20;;;15.90;99.90;;;;;;5044484;28;20182;-67
2021/08/04 01:03:52;;;;;;;1.70;1.40;;;15.90;99.90;;;;;;5043387;28;20285;-67
2021/08/04 01:06:48;;;;;;;1.50;1.38;;;16.00;99.90;;;;;;5044542;28;20728;-67
2021/08/04 01:09:17;;;;;;;1.60;1.42;;;15.90;99.90;;;;;;5044826;28;20178;-68
2021/08/04 01:11:49;;;;;;;2.28;1.83;;;15.90;99.90;;;;;;5044617;28;20521;-68
2021/08/04 01:14:20;;;;;;;2.75;1.73;;;15.90;99.90;;;;;;5043567;28;20182;-68
2021/08/04 01:16:48;;;;;;;1.30;1.20;;;16.10;99.90;;;;;;5044215;28;20194;-68
2021/08/04 01:19:34;;;;;;;1.55;1.45;;;16.20;99.90;;;;;;5043157;28;20569;-67
2021/08/04 01:22:12;;;;;;;1.70;1.60;;;16.10;99.90;;;;;;5044606;28;20221;-67
2021/08/04 01:24:48;;;;;;;1.50;1.40;;;16.10;99.90;;;;;;5043724;28;20214;-67
2021/08/04 01:27:15;;;;;;;4.80;2.22;;;16.10;99.90;;;;;;5044552;28;20296;-68
2021/08/04 01:29:41;;;;;;;2.35;1.55;;;16.00;99.90;;;;;;5044476;28;20178;-67
2021/08/04 01:32:10;;;;;;;1.90;1.70;;;16.00;99.90;;;;;;5044667;28;20217;-67
2021/08/04 01:34:36;;;;;;;1.85;1.63;;;16.00;99.90;;;;;;5043731;28;20185;-67
2021/08/04 01:37:04;;;;;;;1.85;1.73;;;16.00;99.90;;;;;;5044422;28;20252;-67
2021/08/04 01:39:31;;;;;;;2.53;1.60;;;15.90;99.90;;;;;;5044106;28;20194;-68
2021/08/04 01:41:57;;;;;;;2.35;1.58;;;15.90;99.90;;;;;;5044375;28;20178;-67
2021/08/04 01:44:23;;;;;;;2.22;1.70;;;15.70;99.90;;;;;;5043203;28;20217;-68
2021/08/04 01:46:50;;;;;;;1.95;1.73;;;15.60;99.90;;;;;;5043839;28;20213;-67
2021/08/04 01:49:16;;;;;;;1.92;1.83;;;15.60;99.90;;;;;;5044118;28;20196;-67
2021/08/04 01:51:44;;;;;;;1.75;1.65;;;15.50;99.90;;;;;;5044236;28;20205;-67
2021/08/04 01:54:11;;;;;;;1.88;1.50;;;15.50;99.90;;;;;;5043590;28;20179;-67
2021/08/04 01:56:38;;;;;;;1.70;1.60;;;15.60;99.90;;;;;;5044367;28;20261;-67
2021/08/04 01:59:05;;;;;;;2.10;1.40;;;15.50;99.90;;;;;;5044593;28;20206;-68
2021/08/04 02:01:31;;;;;;;3.35;1.60;;;15.50;99.90;;;;;;5044128;28;20216;-67
2021/08/04 02:03:56;;;;;;;1.83;1.63;;;15.50;99.90;;;;;;5043225;28;20190;-67
2021/08/04 02:06:44;;;;;;;1.67;1.40;;;15.50;99.90;;;;;;5043554;28;20569;-67
2021/08/04 02:09:35;;;;;;;1.80;1.70;;;15.40;99.90;;;;;;5044326;28;20281;-67
2021/08/04 02:12:04;;;;;;;1.67;1.58;;;15.40;99.90;;;;;;5043177;28;20209;-68
2021/08/04 02:14:48;;;;;;;1.95;1.75;;;15.30;99.90;;;;;;5042981;28;20262;-67
2021/08/04 02:17:27;;;;;;;1.50;1.40;;;15.20;99.90;;;;;;5043594;28;20281;-67
2021/08/04 02:20:02;;;;;;;1.77;1.67;;;15.10;99.90;;;;;;5043849;28;20178;-68
2021/08/04 02:22:48;;;;;;;1.63;1.52;;;15.30;99.90;;;;;;5044198;28;20697;-67
2021/08/04 02:25:36;;;;;;;1.98;1.25;;;15.20;99.90;;;;;;5042977;28;20206;-68
2021/08/04 02:28:06;;;;;;;1.50;1.40;;;15.40;99.90;;;;;;5047074;28;20220;-67
2021/08/04 02:30:34;;;;;;;1.60;1.50;;;15.50;99.90;;;;;;5047762;28;20181;-67
2021/08/04 02:33:01;;;;;;;3.85;1.67;;;15.50;99.90;;;;;;5047395;28;20209;-67
2021/08/04 02:35:27;;;;;;;1.98;1.73;;;15.50;99.90;;;;;;5047517;28;20672;-68
2021/08/04 02:37:53;;;;;;;2.45;1.67;;;15.50;99.90;;;;;;5047890;28;20186;-67
2021/08/04 02:40:19;;;;;;;1.88;1.67;;;15.60;99.90;;;;;;5047057;28;20235;-67
2021/08/04 02:42:46;;;;;;;2.17;1.83;;;15.50;99.90;;;;;;5047434;28;20269;-67
2021/08/04 02:45:12;;;;;;;1.85;1.75;;;15.50;99.90;;;;;;5046459;28;20249;-67
2021/08/04 02:47:38;;;;;;;1.35;1.25;;;15.40;99.90;;;;;;5046074;28;20220;-68
2021/08/04 02:50:07;;;;;;;3.55;1.80;;;15.40;99.90;;;;;;5047183;28;20174;-68
2021/08/04 02:52:34;;;;;;;1.88;1.77;;;15.30;99.90;;;;;;5047291;28;20186;-67
2021/08/04 02:54:59;;;;;;;2.42;1.60;;;15.40;99.90;;;;;;5046307;28;20177;-67
2021/08/04 02:57:26;;;;;;;2.13;1.88;;;15.30;99.90;;;;;;5047270;28;20198;-67
2021/08/04 02:59:51;;;;;;;1.85;1.75;;;15.30;99.90;;;;;;5046845;28;20186;-67
2021/08/04 03:02:17;;;;;;;2.20;1.90;;;15.30;99.90;;;;;;5047208;28;20186;-68
2021/08/04 03:04:43;;;;;;;1.40;1.30;;;15.30;99.90;;;;;;5046378;28;20303;-68
2021/08/04 03:07:09;;;;;;;1.58;1.42;;;15.20;99.90;;;;;;5047047;28;20198;-68
2021/08/04 03:09:35;;;;;;;3.72;1.67;;;15.30;99.90;;;;;;5047272;28;20216;-67
2021/08/04 03:12:00;;;;;;;1.45;1.35;;;15.30;99.90;;;;;;5046965;28;20229;-68
2021/08/04 03:14:26;;;;;;;1.40;1.15;;;15.20;99.90;;;;;;5046668;28;20672;-67
2021/08/04 03:16:52;;;;;;;1.25;1.15;;;15.20;99.90;;;;;;5046556;28;20210;-68
2021/08/04 03:19:17;;;;;;;1.35;1.25;;;15.20;99.90;;;;;;5047169;28;20704;-67
2021/08/04 03:21:44;;;;;;;1.40;1.30;;;15.10;99.90;;;;;;5046919;28;20194;-67
2021/08/04 03:24:10;;;;;;;3.22;1.38;;;15.10;99.90;;;;;;5045847;28;20216;-67
2021/08/04 03:26:36;;;;;;;1.48;1.38;;;15.10;99.90;;;;;;5046768;28;20209;-67
2021/08/04 03:29:02;;;;;;;1.60;1.45;;;15.10;99.90;;;;;;5046996;28;21083;-68
2021/08/04 03:31:29;;;;;;;1.55;1.42;;;15.10;99.90;;;;;;5046961;28;20186;-68
2021/08/04 03:33:54;;;;;;;1.95;1.48;;;15.10;99.90;;;;;;5046400;28;20170;-68
2021/08/04 03:36:20;;;;;;;2.03;1.50;;;15.10;99.90;;;;;;5046154;28;20653;-68
2021/08/04 03:38:46;;;;;;;1.75;1.65;;;15.20;99.90;;;;;;5046275;28;20232;-67
2021/08/04 03:41:11;;;;;;;2.15;1.95;;;15.30;99.90;;;;;;5046362;28;20650;-68
2021/08/04 03:43:37;;;;;;;1.48;1.38;;;15.30;99.90;;;;;;5039596;28;20225;-67
2021/08/04 03:46:03;;;;;;;2.42;1.70;;;15.30;99.90;;;;;;5044620;28;20699;-67
2021/08/04 03:48:28;;;;;;;1.98;1.80;;;15.40;99.90;;;;;;5046040;28;20193;-67
2021/08/04 03:50:54;;;;;;;1.60;1.50;;;15.40;99.90;;;;;;5043643;28;20266;-67
2021/08/04 03:53:20;;;;;;;1.60;1.50;;;15.40;99.90;;;;;;5046023;28;20505;-67
2021/08/04 03:55:45;;;;;;;1.73;1.63;;;15.40;99.90;;;;;;5044905;28;21194;-68
2021/08/04 03:58:11;;;;;;;1.50;1.40;;;15.30;99.90;;;;;;5046250;28;20187;-68
2021/08/04 04:00:36;;;;;;;2.85;1.70;;;15.20;99.90;;;;;;5045210;28;20182;-67
2021/08/04 04:03:02;;;;;;;2.08;1.63;;;15.20;99.90;;;;;;5045806;28;20174;-67
2021/08/04 04:05:28;;;;;;;2.38;1.90;;;15.20;99.90;;;;;;5044638;28;20206;-68
2021/08/04 04:07:53;;;;;;;3.05;1.55;;;15.30;99.90;;;;;;5045784;28;20182;-68
2021/08/04 04:10:19;;;;;;;2.17;1.50;;;15.40;99.90;;;;;;5044294;28;20174;-67
2021/08/04 04:12:45;;;;;;;1.65;1.55;;;15.40;99.90;;;;;;5045449;28;20174;-67
2021/08/04 04:15:10;;;;;;;1.67;1.58;;;15.50;99.90;;;;;;5043713;28;20194;-68
2021/08/04 04:17:36;;;;;;;1.70;1.60;;;15.50;99.90;;;;;;5045639;28;20695;-67
2021/08/04 04:20:03;;;;;;;1.65;1.55;;;15.50;99.90;;;;;;5045256;28;20178;-68
2021/08/04 04:22:29;;;;;;;4.00;1.50;;;15.50;99.90;;;;;;5044034;28;20652;-68
2021/08/04 04:24:54;;;;;;;1.77;1.50;;;15.50;99.90;;;;;;5043096;28;20190;-68
2021/08/04 04:27:20;;;;;;;2.20;1.98;;;15.50;99.90;;;;;;5044927;28;20289;-68
2021/08/04 04:29:46;;;;;;;1.92;1.63;;;15.40;99.90;;;;;;5045014;28;20182;-67
2021/08/04 04:32:12;;;;;;;2.00;1.70;;;15.50;99.90;;;;;;5045045;28;20224;-67
2021/08/04 04:34:38;;;;;;;1.60;1.30;;;15.50;99.90;;;;;;5044414;28;20201;-68
2021/08/04 04:37:04;;;;;;;2.88;1.88;;;15.70;99.90;;;;;;5043600;28;20210;-67
2021/08/04 04:39:29;;;;;;;1.60;1.42;;;15.70;99.90;;;;;;5044584;28;20187;-68
2021/08/04 04:41:55;;;;;;;2.13;1.60;;;15.80;99.90;;;;;;5045224;28;20197;-67
2021/08/04 04:44:21;;;;;;;1.50;1.40;;;15.90;99.90;;;;;;5043968;28;20213;-67
2021/08/04 04:46:46;;;;;;;2.00;1.30;;;15.90;99.90;;;;;;5045075;28;20221;-67
2021/08/04 04:49:12;;;;;;;1.65;1.55;;;15.80;99.90;;;;;;5043947;28;20193;-67
2021/08/04 04:51:38;;;;;;;1.50;1.33;;;15.80;99.90;;;;;;5044924;28;20563;-67
2021/08/04 04:54:03;;;;;;;2.25;1.80;;;15.90;99.90;;;;;;5044136;28;20178;-67
2021/08/04 04:56:29;;;;;;;3.45;2.10;;;15.90;99.90;;;;;;5044467;28;20206;-67
2021/08/04 04:58:54;;;;;;;1.70;1.60;;;16.00;99.90;;;;;;5044576;28;20641;-67
2021/08/04 05:01:21;;;;;;;2.22;1.60;;;16.00;99.90;;;;;;5044332;28;20260;-67
2021/08/04 05:03:47;;;;;;;3.03;1.73;;;16.00;99.90;;;;;;5044124;28;20194;-67
2021/08/04 05:06:13;;;;;;;1.50;1.40;;;16.00;99.90;;;;;;5044006;28;20214;-67
2021/08/04 05:08:39;;;;;;;2.25;1.60;;;16.00;99.90;;;;;;5045035;28;20743;-67
2021/08/04 05:11:04;;;;;;;2.50;1.95;;;16.10;99.90;;;;;;5043921;28;20173;-68
2021/08/04 05:13:30;;;;;;;2.22;2.03;;;16.10;99.90;;;;;;5044666;28;20174;-68
2021/08/04 05:15:58;;;;;;;1.70;1.60;;;16.10;99.90;;;;;;5043546;28;20816;-68
2021/08/04 05:18:24;;;;;;;1.70;1.60;;;16.10;99.90;;;;;;5044468;28;20178;-67
2021/08/04 05:20:50;;;;;;;2.10;1.90;;;16.10;99.90;;;;;;5044396;28;20231;-68
2021/08/04 05:23:15;;;;;;;2.55;1.83;;;16.00;99.90;;;;;;5043897;28;20182;-68
2021/08/04 05:25:41;;;;;;;2.22;1.90;;;16.00;99.90;;;;;;5043605;28;20222;-67
2021/08/04 05:28:07;;;;;;;2.38;1.88;;;16.00;99.90;;;;;;5043881;28;20175;-68
2021/08/04 05:30:32;;;;;;;1.80;1.70;;;16.10;99.90;;;;;;5044356;28;20182;-67
2021/08/04 05:32:58;;;;;;;1.85;1.52;;;16.20;99.90;;;;;;5043769;28;20189;-67
2021/08/04 05:35:24;;;;;;;1.70;1.50;;;16.30;99.90;;;;;;5043264;28;20182;-68
2021/08/04 05:37:50;;;;;;;2.60;1.60;;;16.40;99.90;;;;;;5044009;28;20186;-68
2021/08/04 05:40:15;;;;;;;2.10;1.90;;;16.40;99.90;;;;;;5043668;28;20190;-67
2021/08/04 05:42:41;;;;;;;2.70;1.48;;;16.50;99.90;;;;;;5042589;28;20189;-68
2021/08/04 05:45:07;;;;;;;2.13;1.95;;;16.70;99.90;;;;;;5043266;28;20209;-67
2021/08/04 05:47:33;;;;;;;3.28;2.10;;;16.80;99.90;;;;;;5044334;28;20178;-67
2021/08/04 05:49:59;;;;;;;2.22;1.80;;;17.00;99.90;;;;;;5044031;28;20184;-68
2021/08/04 05:52:24;;;;;;;1.60;1.50;;;17.10;99.90;;;;;;5042523;28;20182;-67
2021/08/04 05:54:51;;;;;;;2.20;1.75;;;17.30;99.90;;;;;;5043150;28;20182;-67
2021/08/04 05:57:16;;;;;;;9.95;1.90;;;17.40;99.90;;;;;;5043570;28;20558;-67
2021/08/04 05:59:42;;;;;;;6.28;1.98;;;17.50;99.90;;;;;;5043993;28;20186;-67
2021/08/04 06:02:08;;;;;;;1.35;1.25;;;17.60;99.90;;;;;;5047023;28;20200;-68
2021/08/04 06:04:34;;;;;;;1.50;1.40;;;17.70;99.90;;;;;;5047529;28;20301;-67
2021/08/04 06:06:59;;;;;;;1.98;1.65;;;17.80;99.90;;;;;;5047849;28;20197;-69
2021/08/04 06:09:25;;;;;;;1.98;1.50;;;17.90;99.90;;;;;;5048515;28;20171;-67
2021/08/04 06:11:51;;;;;;;1.83;1.70;;;18.00;99.90;;;;;;5047835;28;20660;-68
2021/08/04 06:14:16;;;;;;;1.67;1.45;;;18.10;99.90;;;;;;5047635;28;20179;-67
2021/08/04 06:16:42;;;;;;;1.85;1.60;;;18.20;99.90;;;;;;5047471;28;20280;-67
2021/08/04 06:19:08;;;;;;;1.80;1.60;;;18.30;99.90;;;;;;5048495;28;20626;-68
2021/08/04 06:21:34;;;;;;;1.95;1.70;;;18.40;99.90;;;;;;5047585;28;20193;-67
2021/08/04 06:24:00;;;;;;;1.77;1.20;;;18.50;99.90;;;;;;5046445;28;20507;-68
2021/08/04 06:26:25;;;;;;;1.70;1.60;;;18.50;99.90;;;;;;5047702;28;20218;-67
2021/08/04 06:28:51;;;;;;;1.50;1.40;;;18.50;99.90;;;;;;5048093;28;20240;-67
2021/08/04 06:31:17;;;;;;;2.08;1.50;;;18.60;99.90;;;;;;5047784;28;20178;-68
2021/08/04 06:33:42;;;;;;;2.03;1.63;;;18.80;99.90;;;;;;5046216;28;20190;-68
2021/08/04 06:36:08;;;;;;;1.63;1.50;;;19.00;99.90;;;;;;5047594;28;20209;-67
2021/08/04 06:38:34;;;;;;;2.40;1.65;;;19.00;99.90;;;;;;5048186;28;20190;-68
2021/08/04 06:41:00;;;;;;;1.80;1.67;;;19.20;99.90;;;;;;5047838;28;20224;-67
2021/08/04 06:43:26;;;;;;;1.70;1.60;;;19.30;99.90;;;;;;5047163;28;20178;-68
2021/08/04 06:45:51;;;;;;;1.83;1.65;;;19.40;99.90;;;;;;5046410;28;20224;-68
2021/08/04 06:48:17;;;;;;;1.80;1.70;;;19.40;99.90;;;;;;5046879;28;20187;-68
2021/08/04 06:50:43;;;;;;;1.40;1.30;;;19.50;99.90;;;;;;5047722;28;20192;-67
2021/08/04 06:53:09;;;;;;;1.45;1.35;;;19.60;99.90;;;;;;5047242;28;20178;-68
2021/08/04 06:55:35;;;;;;;2.95;1.65;;;19.80;99.90;;;;;;5046730;28;20206;-68
2021/08/04 06:58:00;;;;;;;1.42;1.33;;;19.90;99.90;;;;;;5047594;28;20264;-67
2021/08/04 07:00:26;;;;;;;2.25;1.48;;;20.20;99.90;;;;;;5046667;28;20181;-69
2021/08/04 07:02:52;;;;;;;1.55;1.45;;;20.30;99.90;;;;;;5046537;28;20210;-68
2021/08/04 07:05:18;;;;;;;1.42;1.33;;;20.60;99.90;;;;;;5046408;28;20197;-69
2021/08/04 07:07:44;;;;;;;1.30;1.20;;;20.70;99.90;;;;;;5046859;28;20582;-69
2021/08/04 07:10:11;;;;;;;2.78;1.50;;;20.70;99.90;;;;;;5041788;28;20228;-70
2021/08/04 07:12:37;;;;;;;2.22;1.65;;;20.90;99.90;;;;;;5045996;28;20301;-68
2021/08/04 07:15:03;;;;;;;2.45;1.70;;;21.20;99.90;;;;;;5046733;28;20681;-68
2021/08/04 07:17:29;;;;;;;1.63;1.40;;;21.30;99.90;;;;;;5046574;28;20186;-70
2021/08/04 07:19:55;;;;;;;2.05;1.20;;;21.60;99.90;;;;;;5046967;28;20235;-68
2021/08/04 07:22:20;;;;;;;1.55;1.33;;;21.70;99.90;;;;;;5046263;28;20645;-68
2021/08/04 07:24:46;;;;;;;1.63;1.52;;;21.80;99.90;;;;;;5046240;28;20277;-67
2021/08/04 07:27:11;;;;;;;1.63;1.40;;;21.80;99.90;;;;;;5046520;28;20194;-68
2021/08/04 07:29:37;;;;;;;1.45;1.27;;;22.10;99.90;;;;;;5047248;28;20268;-68
2021/08/04 07:32:04;;;;;;;1.92;1.40;;;22.30;99.90;;;;;;5046559;28;20179;-68
2021/08/04 07:34:29;;;;;;;1.48;1.38;;;22.10;99.90;;;;;;5046051;28;20626;-69
2021/08/04 07:36:55;;;;;;;1.70;1.60;;;22.00;99.90;;;;;;5046695;28;20209;-68
2021/08/04 07:39:21;;;;;;;2.40;1.50;;;22.10;99.90;;;;;;5046566;28;20174;-67
2021/08/04 07:41:47;;;;;;;2.97;1.83;;;22.30;99.90;;;;;;5045900;28;20943;-69
2021/08/04 07:44:13;;;;;;;2.15;1.35;;;22.50;99.90;;;;;;5045478;28;20214;-68
2021/08/04 07:46:39;;;;;;;1.60;1.42;;;22.60;99.90;;;;;;5046224;28;20206;-69
2021/08/04 07:49:04;;;;;;;1.90;1.77;;;22.80;99.90;;;;;;5046211;28;20194;-68
2021/08/04 07:51:30;;;;;;;1.80;1.70;;;22.70;99.90;;;;;;5046429;28;20182;-67
2021/08/04 07:53:56;;;;;;;1.67;1.38;;;22.60;99.90;;;;;;5045787;28;20688;-69
2021/08/04 07:56:23;;;;;;;1.65;1.55;;;22.70;99.90;;;;;;5046059;28;20221;-68
2021/08/04 07:58:50;;;;;;;1.75;1.65;;;22.50;99.90;;;;;;5046317;28;20170;-67
2021/08/04 08:01:16;;;;;;;2.35;1.70;;;22.10;99.90;;;;;;5046361;28;20278;-68
2021/08/04 08:03:42;;;;;;;2.55;1.90;;;21.90;99.90;;;;;;5045566;28;20194;-70
2021/08/04 08:06:07;;;;;;;1.67;1.50;;;21.80;99.90;;;;;;5045629;28;20221;-68
2021/08/04 08:08:33;;;;;;;1.88;1.55;;;21.80;99.90;;;;;;5045780;28;20253;-68
2021/08/04 08:10:59;;;;;;;1.67;1.58;;;22.00;99.90;;;;;;5045876;28;20205;-66
2021/08/04 08:13:24;;;;;;;1.92;1.42;;;21.80;99.90;;;;;;5045465;28;20175;-68
2021/08/04 08:15:54;;;;;;;2.53;1.90;;;21.80;99.90;;;;;;5045349;28;20236;-68
2021/08/04 08:18:20;;;;;;;2.85;1.40;;;21.90;99.90;;;;;;5045102;28;20188;-66
2021/08/04 08:20:46;;;;;;;2.28;1.88;;;22.00;99.90;;;;;;5046005;28;20672;-68
2021/08/04 08:23:12;;;;;;;2.08;1.73;;;21.90;99.90;;;;;;5045528;28;20190;-68
2021/08/04 08:25:38;;;;;;;2.17;1.52;;;21.60;99.90;;;;;;5043844;28;20242;-68
2021/08/04 08:28:05;;;;;;;1.55;1.45;;;21.70;99.90;;;;;;5045516;28;20183;-70
2021/08/04 08:30:31;;;;;;;1.92;1.77;;;21.80;99.90;;;;;;5045903;28;20244;-69
2021/08/04 08:32:57;;;;;;;1.70;1.60;;;22.10;99.90;;;;;;5044508;28;20170;-71
2021/08/04 08:35:23;;;;;;;2.20;2.00;;;22.20;99.90;;;;;;5045386;28;20177;-70
2021/08/04 08:37:49;;;;;;;2.70;1.85;;;22.40;99.90;;;;;;5045299;28;20201;-71
2021/08/04 08:40:16;;;;;;;3.05;2.30;;;22.50;99.90;;;;;;5043969;28;20530;-69
2021/08/04 08:42:43;;;;;;;3.83;2.38;;;22.60;99.90;;;;;;5042926;28;20562;-68
2021/08/04 08:45:10;;;;;;;2.22;2.03;;;22.60;99.90;;;;;;5044482;28;20248;-69
2021/08/04 08:47:39;;;;;;;2.28;2.08;;;22.00;99.90;;;;;;5044541;28;20174;-70
2021/08/04 08:50:05;;;;;;;3.28;2.00;;;22.00;99.90;;;;;;5044859;28;20178;-70
2021/08/04 08:52:31;;;;;;;2.25;2.05;;;22.10;99.90;;;;;;5044813;28;20269;-69
2021/08/04 08:55:03;;;;;;;2.03;1.83;;;22.20;99.90;;;;;;5044607;28;20197;-67
2021/08/04 08:57:30;;;;;;;2.42;2.20;;;22.50;99.90;;;;;;5044536;28;20269;-68
2021/08/04 08:59:57;;;;;;;2.65;2.28;;;22.40;99.90;;;;;;5043969;28;20178;-68
2021/08/04 09:02:25;;;;;;;2.25;2.05;;;22.20;99.90;;;;;;5044619;28;20178;-70
2021/08/04 09:05:01;;;;;;;8.27;2.10;;;22.30;99.90;;;;;;5043830;28;20234;-67
2021/08/04 09:07:46;;;;;;;2.15;1.88;;;22.50;99.90;;;;;;5044515;28;20229;-68
2021/08/04 09:10:31;;;;;;;2.55;2.22;;;22.40;99.90;;;;;;5044073;28;20210;-67
2021/08/04 09:12:59;;;;;;;2.17;1.98;;;22.40;99.90;;;;;;5044213;28;20181;-69
2021/08/04 09:15:38;;;;;;;3.00;2.65;;;22.50;99.90;;;;;;5044094;28;20209;-69
2021/08/04 09:18:07;;;;;;;2.67;2.33;;;22.40;99.90;;;;;;5044513;28;20182;-68
2021/08/04 09:20:54;;;;;;;3.92;2.30;;;22.40;99.90;;;;;;5045140;28;20186;-68
2021/08/04 09:23:25;;;;;;;2.05;1.60;;;22.50;99.90;;;;;;5044041;28;20254;-71
2021/08/04 09:26:03;;;;;;;3.00;2.20;;;22.50;99.90;;;;;;5043739;28;20240;-71
2021/08/04 09:28:30;;;;;;;2.40;2.10;;;22.40;99.90;;;;;;5044885;28;20170;-69
2021/08/04 09:31:03;;;;;;;2.38;2.15;;;22.40;99.90;;;;;;5044657;28;20650;-70
2021/08/04 09:33:38;;;;;;;2.22;2.03;;;22.70;99.90;;;;;;5044736;28;20182;-69
2021/08/04 09:36:04;;;;;;;2.03;1.83;;;22.90;99.90;;;;;;5043429;28;20198;-70
2021/08/04 09:38:30;;;;;;;2.45;2.15;;;22.70;99.90;;;;;;5044655;28;20261;-70
2021/08/04 09:41:11;;;;;;;3.08;2.38;;;22.90;99.90;;;;;;5044213;28;20257;-70
2021/08/04 09:43:37;;;;;;;1.83;1.73;;;22.70;99.90;;;;;;5044479;28;20691;-69
2021/08/04 09:46:04;;;;;;;2.58;2.10;;;22.80;99.90;;;;;;5043533;28;20692;-71
2021/08/04 09:48:30;;;;;;;2.22;1.95;;;22.90;99.90;;;;;;5044732;28;20173;-66
2021/08/04 09:51:01;;;;;;;3.10;1.98;;;22.80;99.90;;;;;;5043382;28;20519;-68
2021/08/04 09:53:33;;;;;;;2.15;1.95;;;22.80;99.90;;;;;;5042860;28;20442;-71
2021/08/04 09:56:12;;;;;;;1.90;1.80;;;22.20;99.90;;;;;;5041664;28;20221;-70
2021/08/04 09:58:44;;;;;;;1.70;1.60;;;22.20;99.90;;;;;;5042733;28;20764;-70
2021/08/04 10:01:12;;;;;;;1.75;1.65;;;22.20;99.90;;;;;;5042714;28;20182;-69
2021/08/04 10:03:38;;;;;;;1.90;1.80;;;22.30;99.90;;;;;;5042607;28;20673;-70
2021/08/04 10:06:04;;;;;;;2.00;1.85;;;22.40;99.90;;;;;;5043122;28;20213;-70
2021/08/04 10:08:30;;;;;;;1.98;1.50;;;22.60;99.90;;;;;;5043682;28;20174;-68
2021/08/04 10:10:57;;;;;;;10.43;2.33;;;22.90;99.90;;;;;;5037497;28;20809;-68
2021/08/04 10:13:26;;;;;;;1.60;1.50;;;22.90;99.90;;;;;;5042911;28;20264;-69
2021/08/04 10:16:01;;;;;;;2.53;1.45;;;22.40;99.90;;;;;;5043142;28;20234;-67
2021/08/04 10:18:31;;;;;;;2.90;1.70;;;22.60;99.90;;;;;;5039187;28;20311;-68
2021/08/04 10:21:01;;;;;;;3.55;1.60;;;22.70;99.90;;;;;;5043456;28;20182;-70
2021/08/04 10:23:29;;;;;;;3.85;1.95;;;23.10;99.90;;;;;;5038445;28;20281;-67
2021/08/04 10:25:56;;;;;;;3.30;1.75;;;23.50;99.90;;;;;;5041762;28;20263;-70
2021/08/04 10:28:23;;;;;;;3.95;1.90;;;23.80;99.90;;;;;;5037242;28;20178;-67
2021/08/04 10:30:49;;;;;;;1.55;1.38;;;24.20;99.90;;;;;;5042947;28;20185;-67
2021/08/04 10:33:15;;;;;;;1.85;1.70;;;24.30;99.90;;;;;;5043186;28;20183;-67
2021/08/04 10:35:45;;;;;;;1.83;1.67;;;24.80;99.90;;;;;;5043646;28;20661;-69
2021/08/04 10:38:15;;;;;;;4.63;2.00;;;24.70;99.90;;;;;;5042789;28;20174;-69
2021/08/04 10:40:41;;;;;;;9.10;1.92;;;24.40;99.90;;;;;;5043402;28;20179;-69
2021/08/04 10:43:06;;;;;;;2.50;1.40;;;24.70;99.90;;;;;;5044009;28;20500;-70
2021/08/04 10:45:33;;;;;;;1.65;1.55;;;24.80;99.90;;;;;;5042392;28;20217;-68
2021/08/04 10:48:25;;;;;;;1.85;1.52;;;24.60;99.90;;;;;;5043977;28;20194;-68
2021/08/04 10:51:26;;;;;;;3.17;2.20;;;24.60;99.90;;;;;;5047462;28;20175;-69
2021/08/04 10:54:00;;;;;;;1.45;1.35;;;24.50;99.90;;;;;;5042131;28;20178;-69
2021/08/04 10:56:32;;;;;;;3.80;1.77;;;24.10;99.90;;;;;;5046651;28;20205;-71
2021/08/04 10:59:13;;;;;;;1.73;1.58;;;24.00;99.90;;;;;;5047991;28;20220;-69
2021/08/04 11:01:51;;;;;;;1.60;1.50;;;23.60;99.90;;;;;;5047372;28;21257;-70
2021/08/04 11:04:28;;;;;;;1.80;1.70;;;23.20;99.90;;;;;;5043059;28;20506;-69
2021/08/04 11:07:16;;;;;;;1.48;1.33;;;23.40;99.90;;;;;;5047412;28;20198;-68
2021/08/04 11:09:51;;;;;;;13.52;2.92;;;23.40;99.90;;;;;;5047412;28;20650;-68
2021/08/04 11:12:34;;;;;;;1.50;1.40;;;23.60;99.90;;;;;;5046984;28;20185;-71
2021/08/04 11:15:02;;;;;;;1.50;1.40;;;23.50;99.90;;;;;;5046634;28;20197;-70
2021/08/04 11:17:33;;;;;;;1.52;1.23;;;23.50;99.90;;;;;;5046893;28;20746;-68
2021/08/04 11:20:00;;;;;;;2.33;1.90;;;23.50;99.90;;;;;;5047181;28;20184;-68
2021/08/04 11:22:41;;;;;;;1.50;1.40;;;23.50;99.90;;;;;;5046952;28;20178;-68
2021/08/04 11:25:12;;;;;;;4.85;2.28;;;23.60;99.90;;;;;;5046342;28;20198;-69
2021/08/04 11:28:05;;;;;;;2.63;2.20;;;23.70;99.90;;;;;;5046746;28;20182;-68
2021/08/04 11:30:36;;;;;;;2.30;2.10;;;24.20;99.90;;;;;;5047006;28;20186;-70
2021/08/04 11:33:29;;;;;;;2.40;1.67;;;24.60;99.90;;;;;;5046329;28;20178;-69
2021/08/04 11:36:03;;;;;;;1.65;1.52;;;24.70;99.90;;;;;;5046159;28;20198;-70
2021/08/04 11:38:51;;;;;;;1.67;1.58;;;24.70;99.90;;;;;;5047126;28;20178;-72
2021/08/04 11:41:18;;;;;;;3.10;1.30;;;24.70;99.90;;;;;;5046703;28;20265;-70
2021/08/04 11:43:45;;;;;;;2.65;1.35;;;24.80;99.90;;;;;;5041956;28;20658;-71
2021/08/04 11:46:31;;;;;;;2.35;1.55;;;24.80;99.90;;;;;;5043275;28;20586;-70
2021/08/04 11:48:58;;;;;;;4.57;2.03;;;24.90;99.90;;;;;;5045519;28;20214;-68
2021/08/04 11:51:49;;;;;;;2.35;1.88;;;24.70;99.90;;;;;;5045778;28;21245;-66
2021/08/04 11:54:26;;;;;;;1.73;1.20;;;25.10;99.90;;;;;;5044437;28;20186;-68
2021/08/04 11:56:52;;;;;;;2.33;1.23;;;25.20;99.90;;;;;;5045197;28;20210;-68
2021/08/04 11:59:18;;;;;;;2.55;1.55;;;25.30;99.90;;;;;;5045060;28;20656;-67
2021/08/04 12:02:03;;;;;;;1.98;1.40;;;25.40;99.90;;;;;;5045233;28;20186;-71
2021/08/04 12:04:31;;;;;;;6.57;2.25;;;25.20;99.90;;;;;;5044975;28;20222;-70
2021/08/04 12:07:01;;;;;;;4.03;2.03;;;25.10;99.90;;;;;;5045740;28;20237;-71
2021/08/04 12:09:31;;;;;;;8.55;1.98;;;25.00;99.90;;;;;;5046304;28;20194;-71
2021/08/04 12:11:58;;;;;;;3.50;1.60;;;24.60;99.90;;;;;;5045478;28;20221;-68
2021/08/04 12:14:25;;;;;;;3.95;1.63;;;24.40;99.90;;;;;;5044896;28;20282;-69
2021/08/04 12:16:57;;;;;;;2.85;1.60;;;24.30;99.90;;;;;;5045210;28;20244;-70
2021/08/04 12:19:33;;;;;;;1.88;1.50;;;23.90;99.90;;;;;;5045676;28;20182;-69
2021/08/04 12:22:00;;;;;;;1.25;1.10;;;23.60;99.90;;;;;;5044208;28;20634;-69
2021/08/04 12:24:26;;;;;;;2.15;1.20;;;23.50;99.90;;;;;;5045076;28;20202;-71
2021/08/04 12:26:53;;;;;;;2.45;0.85;;;23.50;99.90;;;;;;5044506;28;20649;-69
2021/08/04 12:29:24;;;;;;;8.88;1.45;;;23.30;99.90;;;;;;5044565;28;20201;-68
2021/08/04 12:32:01;;;;;;;2.38;1.25;;;23.30;99.90;;;;;;5043557;28;20273;-70
2021/08/04 12:34:28;;;;;;;3.70;1.00;;;23.10;99.90;;;;;;5043679;28;20182;-70
2021/08/04 12:36:56;;;;;;;3.95;1.70;;;23.10;99.90;;;;;;5044209;28;20198;-69
2021/08/04 12:39:28;;;;;;;2.55;1.50;;;23.10;99.90;;;;;;5044285;28;20187;-69
2021/08/04 12:41:54;;;;;;;3.67;1.23;;;23.10;99.90;;;;;;5044424;28;20197;-71
2021/08/04 12:44:19;;;;;;;1.52;1.42;;;23.10;99.90;;;;;;5043775;28;20221;-69
2021/08/04 12:46:45;;;;;;;12.65;1.83;;;23.20;99.90;;;;;;5043908;28;20287;-70
2021/08/04 12:49:21;;;;;;;3.05;1.02;;;23.00;99.90;;;;;;5044472;28;20174;-68
2021/08/04 12:51:57;;;;;;;2.78;0.80;;;23.00;99.90;;;;;;5044563;28;20633;-71
2021/08/04 12:54:31;;;;;;;1.52;1.00;;;22.90;99.90;;;;;;5043831;28;20173;-70